Download Report Download Report to Microsoft Excel
Housatonic River at Stevenson
 Total Drainage Area: 1,545 sq. miles 
 Drainage Area Controlled by Corps Dams: 0 sq. miles (0%) 
 Warning Flow/Stage: 13,700 cfs / 11.0 feet 
 Flood Flow/Stage: 27,200 cfs / 15.0 feet 
Date Time
(Eastern)
Stage
(ft)
Flow
(cfs)
CSM
(cfs / sq. mi.)
21 Jul 2024 03:30 PM 2.50 470 .3
21 Jul 2024 03:15 PM 2.49 466 .3
21 Jul 2024 03:00 PM 2.50 470 .3
21 Jul 2024 02:45 PM 2.50 470 .3
21 Jul 2024 02:30 PM 2.50 470 .3
21 Jul 2024 02:15 PM 2.50 470 .3
21 Jul 2024 02:00 PM 2.50 470 .3
21 Jul 2024 01:45 PM 2.51 473 .3
21 Jul 2024 01:30 PM 2.51 473 .3
21 Jul 2024 01:15 PM 2.51 473 .3
21 Jul 2024 01:00 PM 2.50 470 .3
21 Jul 2024 12:45 PM 2.51 473 .3
21 Jul 2024 12:30 PM 2.51 473 .3
21 Jul 2024 12:15 PM 2.50 470 .3
21 Jul 2024 12:00 PM 2.50 470 .3
21 Jul 2024 11:45 AM 2.50 470 .3
21 Jul 2024 11:30 AM 2.50 470 .3
21 Jul 2024 11:15 AM 2.50 470 .3
21 Jul 2024 11:00 AM 2.52 477 .3
21 Jul 2024 10:45 AM 2.53 481 .3
21 Jul 2024 10:30 AM 2.53 481 .3
21 Jul 2024 10:15 AM 2.53 481 .3
21 Jul 2024 10:00 AM 2.53 481 .3
21 Jul 2024 09:45 AM 2.53 481 .3
21 Jul 2024 09:30 AM 2.52 477 .3
21 Jul 2024 09:15 AM 2.52 477 .3
21 Jul 2024 09:00 AM 2.52 477 .3
21 Jul 2024 08:45 AM 2.52 477 .3
21 Jul 2024 08:30 AM 2.52 477 .3
21 Jul 2024 08:15 AM 2.51 473 .3
21 Jul 2024 08:00 AM 2.51 473 .3
21 Jul 2024 07:45 AM 2.51 473 .3
21 Jul 2024 07:30 AM 2.51 473 .3
21 Jul 2024 07:15 AM 2.50 470 .3
21 Jul 2024 07:00 AM 2.51 473 .3
21 Jul 2024 06:45 AM 2.51 473 .3
21 Jul 2024 06:30 AM 2.52 477 .3
21 Jul 2024 06:15 AM 2.51 473 .3
21 Jul 2024 06:00 AM 2.51 473 .3
21 Jul 2024 05:45 AM 2.51 473 .3
21 Jul 2024 05:30 AM 2.51 473 .3
21 Jul 2024 05:15 AM 2.51 473 .3
21 Jul 2024 05:00 AM 2.52 477 .3
21 Jul 2024 04:45 AM 2.52 477 .3
21 Jul 2024 04:30 AM 2.50 470 .3
21 Jul 2024 04:15 AM 2.50 470 .3
21 Jul 2024 04:00 AM 2.51 473 .3
21 Jul 2024 03:45 AM 2.51 473 .3
21 Jul 2024 03:30 AM 2.51 473 .3
21 Jul 2024 03:15 AM 2.51 473 .3
21 Jul 2024 03:00 AM 2.51 473 .3
21 Jul 2024 02:45 AM 2.51 473 .3
21 Jul 2024 02:30 AM 2.51 473 .3
21 Jul 2024 02:15 AM 2.51 473 .3
21 Jul 2024 02:00 AM 2.52 477 .3
21 Jul 2024 01:45 AM 2.51 473 .3
21 Jul 2024 01:30 AM 2.51 473 .3
21 Jul 2024 01:15 AM 2.52 477 .3
21 Jul 2024 01:00 AM 2.51 473 .3
21 Jul 2024 12:45 AM 2.51 473 .3
21 Jul 2024 12:30 AM 2.52 477 .3
21 Jul 2024 12:15 AM 2.51 473 .3
21 Jul 2024 12:00 AM 2.52 477 .3
20 Jul 2024 11:45 PM 2.52 477 .3
20 Jul 2024 11:30 PM 2.52 477 .3
20 Jul 2024 11:15 PM 2.52 477 .3
20 Jul 2024 11:00 PM 2.52 477 .3
20 Jul 2024 10:45 PM 2.52 477 .3
20 Jul 2024 10:30 PM 2.53 481 .3
20 Jul 2024 10:15 PM 2.54 484 .3
20 Jul 2024 10:00 PM 2.55 488 .3
20 Jul 2024 09:45 PM 2.59 502 .3
20 Jul 2024 09:30 PM 2.65 524 .3
20 Jul 2024 09:15 PM 2.77 569 .4
20 Jul 2024 09:00 PM 2.94 642 .4
20 Jul 2024 08:45 PM 3.34 830 .5
20 Jul 2024 08:30 PM 4.37 1,538 1.0
20 Jul 2024 08:15 PM 5.38 2,553 1.7
20 Jul 2024 08:00 PM 6.18 3,601 2.3
20 Jul 2024 07:45 PM 6.70 4,380 2.8
20 Jul 2024 07:30 PM 6.71 4,395 2.8
20 Jul 2024 07:15 PM 6.71 4,395 2.8
20 Jul 2024 07:00 PM 6.70 4,380 2.8
20 Jul 2024 06:45 PM 6.70 4,380 2.8
20 Jul 2024 06:30 PM 6.70 4,380 2.8
20 Jul 2024 06:15 PM 6.70 4,380 2.8
20 Jul 2024 06:00 PM 6.70 4,380 2.8
20 Jul 2024 05:45 PM 6.68 4,348 2.8
20 Jul 2024 05:30 PM 6.48 4,040 2.6
20 Jul 2024 05:15 PM 5.40 2,577 1.7
20 Jul 2024 05:00 PM 4.59 1,729 1.1
20 Jul 2024 04:45 PM 4.04 1,276 .8
20 Jul 2024 04:30 PM 3.92 1,191 .8
20 Jul 2024 04:15 PM 3.53 937 .6
20 Jul 2024 04:00 PM 2.56 491 .3
20 Jul 2024 03:45 PM 2.48 463 .3
20 Jul 2024 03:30 PM 2.48 463 .3
20 Jul 2024 03:15 PM 2.48 463 .3
20 Jul 2024 03:00 PM 2.49 466 .3
20 Jul 2024 02:45 PM 2.49 466 .3
20 Jul 2024 02:30 PM 2.48 463 .3
20 Jul 2024 02:15 PM 2.47 459 .3
20 Jul 2024 02:00 PM 2.48 463 .3
20 Jul 2024 01:45 PM 2.48 463 .3
20 Jul 2024 01:30 PM 2.48 463 .3
20 Jul 2024 01:15 PM 2.48 463 .3
20 Jul 2024 01:00 PM 2.49 466 .3
20 Jul 2024 12:45 PM 2.49 466 .3
20 Jul 2024 12:30 PM 2.48 463 .3
20 Jul 2024 12:15 PM 2.48 463 .3
20 Jul 2024 12:00 PM 2.48 463 .3
20 Jul 2024 11:45 AM 2.48 463 .3
20 Jul 2024 11:30 AM 2.49 466 .3
20 Jul 2024 11:15 AM 2.49 466 .3
20 Jul 2024 11:00 AM 2.49 466 .3
20 Jul 2024 10:45 AM 2.49 466 .3
20 Jul 2024 10:30 AM 2.49 466 .3
20 Jul 2024 10:15 AM 2.48 463 .3
20 Jul 2024 10:00 AM 2.48 463 .3
20 Jul 2024 09:45 AM 2.48 463 .3
20 Jul 2024 09:30 AM 2.48 463 .3
20 Jul 2024 09:15 AM 2.48 463 .3
20 Jul 2024 09:00 AM 2.47 459 .3
20 Jul 2024 08:45 AM 2.48 463 .3
20 Jul 2024 08:30 AM 2.48 463 .3
20 Jul 2024 08:15 AM 2.48 463 .3
20 Jul 2024 08:00 AM 2.48 463 .3
20 Jul 2024 07:45 AM 2.48 463 .3
20 Jul 2024 07:30 AM 2.48 463 .3
20 Jul 2024 07:15 AM 2.47 459 .3
20 Jul 2024 07:00 AM 2.48 463 .3
20 Jul 2024 06:45 AM 2.48 463 .3
20 Jul 2024 06:30 AM 2.48 463 .3
20 Jul 2024 06:15 AM 2.48 463 .3
20 Jul 2024 06:00 AM 2.47 459 .3
20 Jul 2024 05:45 AM 2.48 463 .3
20 Jul 2024 05:30 AM 2.50 470 .3
20 Jul 2024 05:15 AM 2.51 473 .3
20 Jul 2024 05:00 AM 2.54 484 .3
20 Jul 2024 04:45 AM 2.56 491 .3
20 Jul 2024 04:30 AM 2.56 491 .3
20 Jul 2024 04:15 AM 2.57 495 .3
20 Jul 2024 04:00 AM 2.58 498 .3
20 Jul 2024 03:45 AM 2.58 498 .3
20 Jul 2024 03:30 AM 2.60 505 .3
20 Jul 2024 03:15 AM 2.63 516 .3
20 Jul 2024 03:00 AM 2.69 538 .4
20 Jul 2024 02:45 AM 2.81 584 .4
20 Jul 2024 02:30 AM 2.84 597 .4
20 Jul 2024 02:15 AM 2.84 597 .4
20 Jul 2024 02:00 AM 2.83 593 .4
20 Jul 2024 01:45 AM 2.84 597 .4
20 Jul 2024 01:30 AM 2.84 597 .4
20 Jul 2024 01:15 AM 2.84 597 .4
20 Jul 2024 01:00 AM 2.83 593 .4
20 Jul 2024 12:45 AM 2.83 593 .4
20 Jul 2024 12:30 AM 2.84 597 .4
20 Jul 2024 12:15 AM 2.85 602 .4
20 Jul 2024 12:00 AM 2.84 597 .4
19 Jul 2024 11:45 PM 2.85 602 .4
19 Jul 2024 11:30 PM 2.86 606 .4
19 Jul 2024 11:15 PM 2.88 615 .4
19 Jul 2024 11:00 PM 2.90 624 .4
19 Jul 2024 10:45 PM 2.97 656 .4
19 Jul 2024 10:30 PM 3.14 734 .5
19 Jul 2024 10:15 PM 3.50 919 .6
19 Jul 2024 10:00 PM 4.62 1,756 1.1
19 Jul 2024 09:45 PM 5.66 2,896 1.9
19 Jul 2024 09:30 PM 6.51 4,085 2.6
19 Jul 2024 09:15 PM 6.71 4,395 2.8
19 Jul 2024 09:00 PM 6.71 4,395 2.8
19 Jul 2024 08:45 PM 6.71 4,395 2.8
19 Jul 2024 08:30 PM 6.72 4,410 2.9
19 Jul 2024 08:15 PM 6.71 4,395 2.8
19 Jul 2024 08:00 PM 6.70 4,380 2.8
19 Jul 2024 07:45 PM 6.70 4,380 2.8
Report Generated July 21, 2024 03:44 pm